Catàleg de serveis del Meteocat
Campanya meteocatpedra

Dades de l'estació automàtica Vilanova de Segrià

?
?
Resum diari 23:00 TU
Dades diàries de l'estació meteorològica
Temperatura mitjana 23.7 °C
Temperatura màxima 32.0 °C 16:03 TU
Temperatura mínima 14.2 °C 5:00 TU
Humitat relativa mitjana 57%
Precipitació acumulada 0.0 mm
Ratxa màxima del vent (2 m) 23.0 km/h - 292º 12:54 TU
Irradiació solar global 30.1 MJ/m2

El tram horari està expressat en Temps Universal (TU). Cal sumar una hora en horari d'hivern i dues en horari d'estiu per passar a l'hora oficial.

Vilanova de Segrià

Metadades estació meteorol´gica
Municipi Vilanova de Segrià
Comarca Segrià
Altitud 222 m
Data alta 17.09.1997
Estat actual Operativa
Dades de període
Període
TU
TM
°C
TX
°C
TN
°C
HRM
%
PPT
mm
VVM (2 m)
km/h
DVM (2 m)
graus
VVX (2 m)
km/h
RS
W/m2
00:00 - 00:30 20.1 20.3 19.6 68 0.0 3.2 231 7.9 0
00:30 - 01:00 19.2 19.5 18.9 73 0.0 2.9 228 7.2 0
01:00 - 01:30 18.4 18.9 17.8 77 0.0 1.1 219 3.6 0
01:30 - 02:00 17.5 17.9 16.8 81 0.0 0.7 215 3.6 0
02:00 - 02:30 16.5 16.8 16.2 85 0.0 0.0 208 2.5 0
02:30 - 03:00 16.0 16.6 15.6 87 0.0 0.4 223 2.9 0
03:00 - 03:30 15.9 16.1 15.8 86 0.0 1.4 232 4.0 0
03:30 - 04:00 15.5 16.0 14.8 85 0.0 1.4 183 4.3 0
04:00 - 04:30 14.5 15.0 14.4 91 0.0 0.7 231 2.2 0
04:30 - 05:00 14.4 14.9 14.2 93 0.0 0.4 249 1.8 9
05:00 - 05:30 14.8 15.7 14.2 94 0.0 0.0 273 1.4 56
05:30 - 06:00 17.0 18.7 15.8 83 0.0 0.0 154 1.4 127
06:00 - 06:30 19.1 19.3 18.6 70 0.0 0.7 137 4.7 217
06:30 - 07:00 19.6 20.2 19.1 67 0.0 1.8 169 6.5 309
07:00 - 07:30 20.2 21.1 19.7 65 0.0 2.2 210 6.1 406
07:30 - 08:00 21.1 21.3 20.8 64 0.0 3.6 219 10.1 500
08:00 - 08:30 21.8 22.3 21.1 64 0.0 3.2 208 9.0 589
08:30 - 09:00 22.9 23.5 22.3 62 0.0 4.3 200 10.1 673
09:00 - 09:30 23.9 24.5 23.1 60 0.0 4.7 219 10.4 746
09:30 - 10:00 24.9 25.8 24.2 59 0.0 4.7 227 13.0 811
10:00 - 10:30 26.0 26.7 25.5 54 0.0 5.4 268 13.3 863
10:30 - 11:00 26.8 27.5 26.0 50 0.0 5.4 270 14.4 902
11:00 - 11:30 27.6 28.2 27.0 45 0.0 7.9 266 22.3 931
11:30 - 12:00 28.2 28.8 27.8 41 0.0 9.7 288 20.2 949
12:00 - 12:30 29.3 29.9 28.5 36 0.0 9.4 288 19.4 958
12:30 - 13:00 29.4 29.9 29.1 35 0.0 11.2 285 23.0 949
13:00 - 13:30 29.9 30.6 29.3 36 0.0 10.8 300 21.6 925
13:30 - 14:00 30.5 31.1 30.0 34 0.0 10.4 294 19.8 887
14:00 - 14:30 30.8 31.2 30.3 34 0.0 11.2 290 20.5 840
14:30 - 15:00 31.2 31.8 30.9 32 0.0 10.8 294 22.0 784
15:00 - 15:30 31.3 31.6 31.1 30 0.0 9.0 281 18.4 717
15:30 - 16:00 31.5 31.8 31.2 29 0.0 9.0 293 17.3 635
16:00 - 16:30 31.6 32.0 31.3 27 0.0 8.6 291 18.0 554
16:30 - 17:00 31.5 31.7 31.4 27 0.0 9.4 299 16.6 459
17:00 - 17:30 31.5 31.7 31.3 26 0.0 8.3 303 17.3 362
17:30 - 18:00 31.0 31.3 30.7 29 0.0 6.8 298 13.3 262
18:00 - 18:30 30.5 30.7 30.1 30 0.0 5.0 291 11.5 169
18:30 - 19:00 29.3 30.1 28.5 35 0.0 4.0 286 9.4 86
19:00 - 19:30 27.3 28.4 25.9 39 0.0 4.7 305 8.6 20
19:30 - 20:00 25.4 25.8 24.9 44 0.0 3.6 305 5.8 1
20:00 - 20:30 24.4 25.0 24.1 45 0.0 4.0 309 5.4 0
20:30 - 21:00 23.4 24.2 21.1 50 0.0 2.5 325 6.1 0
21:00 - 21:30 21.1 21.9 20.3 62 0.0 1.8 115 6.8 0
21:30 - 22:00 20.1 20.7 19.6 70 0.0 0.7 100 4.0 0
22:00 - 22:30 20.6 21.2 20.1 78 0.0 1.8 112 8.6 0
22:30 - 23:00 20.3 21.2 19.4 82 0.0 0.7 135 4.3 0
23:00 - 23:30 19.6 20.1 19.2 84 0.0 1.1 129 7.2 0

Les dades en taronja només han passat un control de qualitat automàtic. Resta pendent la seva validació definitiva.